Terminal Aerodrome Forecast
Issued by NWS Sterling, VA

Home | Current Version | Previous Version | Text Only | Print | Product List | Glossary On
Versions: 1 2 3 4 5 6 7 8 9 10 11 12 13 14
759
FTUS41 KLWX 121720
TAFMRB
TAF
KMRB 121720Z 1218/1318 18007KT P6SM BKN050
     FM122100 21005KT 3SM -SHSN SCT008 OVC050
     FM130100 27005KT P6SM BKN050
     FM130500 29010KT P6SM BKN050
     FM130700 29015G25KT P6SM BKN050
     FM130900 30020G35KT P6SM BKN050=

USA.gov is the U.S. government's official web portal to all federal, state and local government web resources and services.